Terminal Aerodrome Forecast
Issued by NWS

Home | Current Version | Previous Version | Text Only | Print | Product List | Glossary On
Versions: 1 2 3 4 5 6 7 8 9 10 11 12 13 14
236
FTUS46 KPDT 262321
TAFALW
TAF
KALW 262321Z 2700/2724 19008KT P6SM -SHRA SCT040 OVC060
      TEMPO 2701/2705 5SM -RA BR BKN025
     FM270800 19008KT P6SM VCSH SCT035 OVC050
     FM271500 21010KT P6SM SCT040 BKN070
     FM272000 23012KT P6SM -SHRA SCT035 BKN050=

USA.gov is the U.S. government's official web portal to all federal, state and local government web resources and services.